sensor_id;sensor_type;location;lat;lon;timestamp;P1;durP1;ratioP1;P2;durP2;ratioP2
69795;SDS011;57073;45.650;9.612;2023-04-24T00:03:37;6.13;;;3.50;;
69795;SDS011;57073;45.650;9.612;2023-04-24T00:08:38;7.72;;;4.18;;
69795;SDS011;57073;45.650;9.612;2023-04-24T00:13:39;6.00;;;3.70;;
69795;SDS011;57073;45.650;9.612;2023-04-24T00:18:40;6.33;;;4.07;;
69795;SDS011;57073;45.650;9.612;2023-04-24T00:23:41;6.90;;;4.05;;
69795;SDS011;57073;45.650;9.612;2023-04-24T00:28:41;6.30;;;3.87;;
69795;SDS011;57073;45.650;9.612;2023-04-24T00:33:42;7.67;;;4.03;;
69795;SDS011;57073;45.650;9.612;2023-04-24T00:38:42;7.00;;;4.03;;
69795;SDS011;57073;45.650;9.612;2023-04-24T00:43:42;9.00;;;5.00;;
69795;SDS011;57073;45.650;9.612;2023-04-24T00:48:44;7.15;;;4.35;;
69795;SDS011;57073;45.650;9.612;2023-04-24T00:53:45;9.17;;;4.03;;
69795;SDS011;57073;45.650;9.612;2023-04-24T00:58:46;7.68;;;4.28;;
69795;SDS011;57073;45.650;9.612;2023-04-24T01:03:51;6.67;;;4.20;;
69795;SDS011;57073;45.650;9.612;2023-04-24T01:08:51;7.90;;;4.20;;
69795;SDS011;57073;45.650;9.612;2023-04-24T01:13:52;6.23;;;4.20;;
69795;SDS011;57073;45.650;9.612;2023-04-24T01:18:52;6.53;;;4.53;;
69795;SDS011;57073;45.650;9.612;2023-04-24T01:23:52;7.23;;;4.27;;
69795;SDS011;57073;45.650;9.612;2023-04-24T01:28:53;7.10;;;4.30;;
69795;SDS011;57073;45.650;9.612;2023-04-24T01:33:54;9.53;;;5.50;;
69795;SDS011;57073;45.650;9.612;2023-04-24T01:38:55;9.52;;;5.57;;
69795;SDS011;57073;45.650;9.612;2023-04-24T01:43:56;7.93;;;5.00;;
69795;SDS011;57073;45.650;9.612;2023-04-24T01:48:58;8.90;;;4.70;;
69795;SDS011;57073;45.650;9.612;2023-04-24T01:54:00;7.45;;;4.50;;
69795;SDS011;57073;45.650;9.612;2023-04-24T01:59:00;6.63;;;4.33;;
69795;SDS011;57073;45.650;9.612;2023-04-24T02:04:03;6.90;;;4.20;;
69795;SDS011;57073;45.650;9.612;2023-04-24T02:09:05;7.23;;;4.80;;
69795;SDS011;57073;45.650;9.612;2023-04-24T02:14:05;11.30;;;5.17;;
69795;SDS011;57073;45.650;9.612;2023-04-24T02:19:06;9.97;;;5.77;;
69795;SDS011;57073;45.650;9.612;2023-04-24T02:24:06;9.30;;;5.70;;
69795;SDS011;57073;45.650;9.612;2023-04-24T02:29:06;10.27;;;6.10;;
69795;SDS011;57073;45.650;9.612;2023-04-24T02:34:07;10.80;;;5.97;;
69795;SDS011;57073;45.650;9.612;2023-04-24T02:39:07;9.63;;;5.93;;
69795;SDS011;57073;45.650;9.612;2023-04-24T02:44:08;9.27;;;5.90;;
69795;SDS011;57073;45.650;9.612;2023-04-24T02:49:08;10.07;;;5.40;;
69795;SDS011;57073;45.650;9.612;2023-04-24T02:54:08;10.10;;;5.47;;
69795;SDS011;57073;45.650;9.612;2023-04-24T02:59:09;9.67;;;4.43;;
69795;SDS011;57073;45.650;9.612;2023-04-24T03:04:10;6.63;;;4.35;;
69795;SDS011;57073;45.650;9.612;2023-04-24T03:09:11;7.03;;;3.80;;
69795;SDS011;57073;45.650;9.612;2023-04-24T03:14:11;4.72;;;3.08;;
69795;SDS011;57073;45.650;9.612;2023-04-24T03:19:12;6.47;;;2.87;;
69795;SDS011;57073;45.650;9.612;2023-04-24T03:24:12;5.97;;;3.10;;
69795;SDS011;57073;45.650;9.612;2023-04-24T03:29:13;5.20;;;3.50;;
69795;SDS011;57073;45.650;9.612;2023-04-24T03:34:13;6.15;;;3.78;;
69795;SDS011;57073;45.650;9.612;2023-04-24T03:39:13;5.33;;;3.57;;
69795;SDS011;57073;45.650;9.612;2023-04-24T03:44:14;7.40;;;2.97;;
69795;SDS011;57073;45.650;9.612;2023-04-24T03:49:14;5.80;;;2.80;;
69795;SDS011;57073;45.650;9.612;2023-04-24T03:54:15;4.23;;;2.70;;
69795;SDS011;57073;45.650;9.612;2023-04-24T03:59:15;4.40;;;2.20;;
69795;SDS011;57073;45.650;9.612;2023-04-24T04:04:15;3.60;;;2.53;;
69795;SDS011;57073;45.650;9.612;2023-04-24T04:09:16;6.80;;;2.70;;
69795;SDS011;57073;45.650;9.612;2023-04-24T04:14:16;5.00;;;2.73;;
69795;SDS011;57073;45.650;9.612;2023-04-24T04:19:16;4.20;;;2.63;;
69795;SDS011;57073;45.650;9.612;2023-04-24T04:24:17;2.93;;;2.10;;
69795;SDS011;57073;45.650;9.612;2023-04-24T04:29:17;3.40;;;2.20;;
69795;SDS011;57073;45.650;9.612;2023-04-24T04:34:22;3.70;;;1.97;;
69795;SDS011;57073;45.650;9.612;2023-04-24T04:39:23;3.15;;;1.98;;
69795;SDS011;57073;45.650;9.612;2023-04-24T04:44:23;12.27;;;2.77;;
69795;SDS011;57073;45.650;9.612;2023-04-24T04:49:24;3.27;;;2.23;;
69795;SDS011;57073;45.650;9.612;2023-04-24T04:54:24;3.77;;;1.90;;
69795;SDS011;57073;45.650;9.612;2023-04-24T04:59:25;3.20;;;1.70;;
69795;SDS011;57073;45.650;9.612;2023-04-24T05:04:25;2.63;;;1.80;;
69795;SDS011;57073;45.650;9.612;2023-04-24T05:09:26;4.05;;;2.00;;
69795;SDS011;57073;45.650;9.612;2023-04-24T05:14:28;3.83;;;2.70;;
69795;SDS011;57073;45.650;9.612;2023-04-24T05:19:29;2.92;;;1.40;;
69795;SDS011;57073;45.650;9.612;2023-04-24T05:24:29;2.33;;;1.20;;
69795;SDS011;57073;45.650;9.612;2023-04-24T05:29:30;2.73;;;1.37;;
69795;SDS011;57073;45.650;9.612;2023-04-24T05:34:31;3.45;;;1.40;;
69795;SDS011;57073;45.650;9.612;2023-04-24T05:39:32;2.93;;;1.07;;
69795;SDS011;57073;45.650;9.612;2023-04-24T05:44:32;2.97;;;1.47;;
69795;SDS011;57073;45.650;9.612;2023-04-24T05:49:33;4.27;;;1.60;;
69795;SDS011;57073;45.650;9.612;2023-04-24T05:54:33;2.30;;;1.40;;
69795;SDS011;57073;45.650;9.612;2023-04-24T05:59:35;3.27;;;1.20;;
69795;SDS011;57073;45.650;9.612;2023-04-24T06:04:36;3.50;;;1.30;;
69795;SDS011;57073;45.650;9.612;2023-04-24T06:09:37;3.37;;;1.60;;
69795;SDS011;57073;45.650;9.612;2023-04-24T06:14:37;2.90;;;1.40;;
69795;SDS011;57073;45.650;9.612;2023-04-24T06:19:37;1.98;;;1.27;;
69795;SDS011;57073;45.650;9.612;2023-04-24T06:24:39;2.90;;;1.67;;
69795;SDS011;57073;45.650;9.612;2023-04-24T06:29:40;3.13;;;1.90;;
69795;SDS011;57073;45.650;9.612;2023-04-24T06:34:40;1.83;;;1.20;;
69795;SDS011;57073;45.650;9.612;2023-04-24T06:39:40;2.30;;;0.93;;
69795;SDS011;57073;45.650;9.612;2023-04-24T06:44:41;6.90;;;1.60;;
69795;SDS011;57073;45.650;9.612;2023-04-24T06:49:41;2.13;;;1.30;;
69795;SDS011;57073;45.650;9.612;2023-04-24T06:54:42;2.10;;;1.27;;
69795;SDS011;57073;45.650;9.612;2023-04-24T06:59:42;1.90;;;1.20;;
69795;SDS011;57073;45.650;9.612;2023-04-24T07:04:42;1.63;;;0.87;;
69795;SDS011;57073;45.650;9.612;2023-04-24T07:09:43;1.60;;;0.90;;
69795;SDS011;57073;45.650;9.612;2023-04-24T07:14:44;1.35;;;0.73;;
69795;SDS011;57073;45.650;9.612;2023-04-24T07:19:44;3.00;;;0.67;;
69795;SDS011;57073;45.650;9.612;2023-04-24T07:24:45;1.43;;;0.97;;
69795;SDS011;57073;45.650;9.612;2023-04-24T07:29:45;1.70;;;0.80;;
69795;SDS011;57073;45.650;9.612;2023-04-24T07:34:46;1.47;;;0.87;;
69795;SDS011;57073;45.650;9.612;2023-04-24T07:39:46;2.33;;;0.90;;
69795;SDS011;57073;45.650;9.612;2023-04-24T07:44:46;1.57;;;0.90;;
69795;SDS011;57073;45.650;9.612;2023-04-24T07:49:47;2.88;;;0.95;;
69795;SDS011;57073;45.650;9.612;2023-04-24T07:54:48;3.43;;;1.17;;
69795;SDS011;57073;45.650;9.612;2023-04-24T07:59:49;1.53;;;0.80;;
69795;SDS011;57073;45.650;9.612;2023-04-24T08:04:49;1.40;;;0.70;;
69795;SDS011;57073;45.650;9.612;2023-04-24T08:09:50;1.57;;;0.60;;
69795;SDS011;57073;45.650;9.612;2023-04-24T08:14:51;0.80;;;0.60;;
69795;SDS011;57073;45.650;9.612;2023-04-24T08:19:51;1.33;;;0.40;;
69795;SDS011;57073;45.650;9.612;2023-04-24T08:24:53;4.53;;;0.65;;
69795;SDS011;57073;45.650;9.612;2023-04-24T08:29:54;0.63;;;0.40;;
69795;SDS011;57073;45.650;9.612;2023-04-24T08:34:55;1.20;;;0.50;;
69795;SDS011;57073;45.650;9.612;2023-04-24T08:39:56;0.70;;;0.40;;
69795;SDS011;57073;45.650;9.612;2023-04-24T08:44:56;0.73;;;0.47;;
69795;SDS011;57073;45.650;9.612;2023-04-24T08:49:57;0.75;;;0.45;;
69795;SDS011;57073;45.650;9.612;2023-04-24T08:55:00;0.77;;;0.20;;
69795;SDS011;57073;45.650;9.612;2023-04-24T09:00:01;1.70;;;0.30;;
69795;SDS011;57073;45.650;9.612;2023-04-24T09:05:02;0.85;;;0.40;;
69795;SDS011;57073;45.650;9.612;2023-04-24T09:10:03;0.73;;;0.30;;
69795;SDS011;57073;45.650;9.612;2023-04-24T09:15:04;1.13;;;0.40;;
69795;SDS011;57073;45.650;9.612;2023-04-24T09:20:07;1.23;;;0.50;;
69795;SDS011;57073;45.650;9.612;2023-04-24T09:25:08;0.80;;;0.40;;
69795;SDS011;57073;45.650;9.612;2023-04-24T09:30:09;0.88;;;0.50;;
69795;SDS011;57073;45.650;9.612;2023-04-24T09:35:14;1.20;;;0.40;;
69795;SDS011;57073;45.650;9.612;2023-04-24T09:45:17;0.85;;;0.50;;
69795;SDS011;57073;45.650;9.612;2023-04-24T09:50:17;1.43;;;0.77;;
69795;SDS011;57073;45.650;9.612;2023-04-24T09:55:19;1.20;;;0.80;;
69795;SDS011;57073;45.650;9.612;2023-04-24T10:00:21;0.95;;;0.68;;
69795;SDS011;57073;45.650;9.612;2023-04-24T10:05:23;1.52;;;0.95;;
69795;SDS011;57073;45.650;9.612;2023-04-24T10:10:24;2.53;;;0.70;;
69795;SDS011;57073;45.650;9.612;2023-04-24T10:15:26;1.00;;;0.70;;
69795;SDS011;57073;45.650;9.612;2023-04-24T10:20:27;1.48;;;0.60;;
69795;SDS011;57073;45.650;9.612;2023-04-24T10:25:31;1.47;;;0.70;;
69795;SDS011;57073;45.650;9.612;2023-04-24T10:30:34;0.90;;;0.70;;
69795;SDS011;57073;45.650;9.612;2023-04-24T10:35:36;1.25;;;0.80;;
69795;SDS011;57073;45.650;9.612;2023-04-24T10:40:39;2.27;;;0.90;;
69795;SDS011;57073;45.650;9.612;2023-04-24T10:45:39;3.03;;;1.13;;
69795;SDS011;57073;45.650;9.612;2023-04-24T10:50:47;2.27;;;1.20;;
69795;SDS011;57073;45.650;9.612;2023-04-24T10:55:51;1.40;;;0.90;;
69795;SDS011;57073;45.650;9.612;2023-04-24T11:00:57;1.70;;;1.27;;
69795;SDS011;57073;45.650;9.612;2023-04-24T11:06:02;1.85;;;1.20;;
69795;SDS011;57073;45.650;9.612;2023-04-24T11:11:08;1.50;;;1.13;;
69795;SDS011;57073;45.650;9.612;2023-04-24T11:16:44;1.92;;;1.23;;
69795;SDS011;57073;45.650;9.612;2023-04-24T11:21:48;2.55;;;1.00;;
69795;SDS011;57073;45.650;9.612;2023-04-24T11:37:34;1.48;;;0.95;;
69795;SDS011;57073;45.650;9.612;2023-04-24T11:42:36;1.60;;;0.80;;
69795;SDS011;57073;45.650;9.612;2023-04-24T11:47:41;1.90;;;0.90;;
69795;SDS011;57073;45.650;9.612;2023-04-24T11:52:44;1.50;;;0.70;;
69795;SDS011;57073;45.650;9.612;2023-04-24T11:57:47;1.90;;;0.70;;
69795;SDS011;57073;45.650;9.612;2023-04-24T12:02:49;1.77;;;0.60;;
69795;SDS011;57073;45.650;9.612;2023-04-24T12:07:51;1.50;;;0.77;;
69795;SDS011;57073;45.650;9.612;2023-04-24T12:12:52;2.80;;;0.63;;
69795;SDS011;57073;45.650;9.612;2023-04-24T12:17:53;2.17;;;0.77;;
69795;SDS011;57073;45.650;9.612;2023-04-24T12:22:56;1.80;;;0.50;;
69795;SDS011;57073;45.650;9.612;2023-04-24T12:33:03;1.70;;;0.35;;
69795;SDS011;57073;45.650;9.612;2023-04-24T12:38:07;0.97;;;0.30;;
69795;SDS011;57073;45.650;9.612;2023-04-24T12:43:15;2.50;;;0.30;;
69795;SDS011;57073;45.650;9.612;2023-04-24T12:48:19;1.03;;;0.30;;
69795;SDS011;57073;45.650;9.612;2023-04-24T12:53:20;0.93;;;0.40;;
69795;SDS011;57073;45.650;9.612;2023-04-24T12:58:21;1.00;;;0.30;;
69795;SDS011;57073;45.650;9.612;2023-04-24T13:03:21;0.57;;;0.30;;
69795;SDS011;57073;45.650;9.612;2023-04-24T13:08:22;0.60;;;0.30;;
69795;SDS011;57073;45.650;9.612;2023-04-24T13:13:22;0.90;;;0.20;;
69795;SDS011;57073;45.650;9.612;2023-04-24T13:18:23;3.50;;;0.77;;
69795;SDS011;57073;45.650;9.612;2023-04-24T13:23:23;0.40;;;0.27;;
69795;SDS011;57073;45.650;9.612;2023-04-24T13:28:24;0.83;;;0.37;;
69795;SDS011;57073;45.650;9.612;2023-04-24T13:33:25;3.30;;;0.37;;
69795;SDS011;57073;45.650;9.612;2023-04-24T13:38:25;1.13;;;0.20;;
69795;SDS011;57073;45.650;9.612;2023-04-24T13:43:25;0.63;;;0.20;;
69795;SDS011;57073;45.650;9.612;2023-04-24T13:48:26;0.63;;;0.20;;
69795;SDS011;57073;45.650;9.612;2023-04-24T13:53:26;0.70;;;0.20;;
69795;SDS011;57073;45.650;9.612;2023-04-24T13:58:26;0.70;;;0.30;;
69795;SDS011;57073;45.650;9.612;2023-04-24T14:03:27;1.03;;;0.20;;
69795;SDS011;57073;45.650;9.612;2023-04-24T14:08:27;0.77;;;0.10;;
69795;SDS011;57073;45.650;9.612;2023-04-24T14:13:27;0.77;;;0.17;;
69795;SDS011;57073;45.650;9.612;2023-04-24T14:18:28;0.57;;;0.20;;
69795;SDS011;57073;45.650;9.612;2023-04-24T14:23:29;2.13;;;0.30;;
69795;SDS011;57073;45.650;9.612;2023-04-24T14:28:30;1.83;;;0.40;;
69795;SDS011;57073;45.650;9.612;2023-04-24T14:33:30;1.13;;;0.23;;
69795;SDS011;57073;45.650;9.612;2023-04-24T14:38:31;1.17;;;0.20;;
69795;SDS011;57073;45.650;9.612;2023-04-24T14:43:31;0.93;;;0.10;;
69795;SDS011;57073;45.650;9.612;2023-04-24T14:48:32;0.50;;;0.20;;
69795;SDS011;57073;45.650;9.612;2023-04-24T14:53:32;2.10;;;0.43;;
69795;SDS011;57073;45.650;9.612;2023-04-24T14:58:34;0.50;;;0.30;;
69795;SDS011;57073;45.650;9.612;2023-04-24T15:03:34;2.63;;;0.90;;
69795;SDS011;57073;45.650;9.612;2023-04-24T15:08:35;4.13;;;1.00;;
69795;SDS011;57073;45.650;9.612;2023-04-24T15:13:35;3.50;;;0.60;;
69795;SDS011;57073;45.650;9.612;2023-04-24T15:18:36;1.33;;;0.37;;
69795;SDS011;57073;45.650;9.612;2023-04-24T15:23:36;2.53;;;0.28;;
69795;SDS011;57073;45.650;9.612;2023-04-24T15:28:37;0.60;;;0.10;;
69795;SDS011;57073;45.650;9.612;2023-04-24T15:33:37;0.98;;;0.20;;
69795;SDS011;57073;45.650;9.612;2023-04-24T15:38:38;1.37;;;0.20;;
69795;SDS011;57073;45.650;9.612;2023-04-24T15:43:38;1.43;;;0.30;;
69795;SDS011;57073;45.650;9.612;2023-04-24T15:48:43;1.55;;;0.20;;
69795;SDS011;57073;45.650;9.612;2023-04-24T15:53:44;0.70;;;0.20;;
69795;SDS011;57073;45.650;9.612;2023-04-24T15:58:45;0.77;;;0.20;;
69795;SDS011;57073;45.650;9.612;2023-04-24T16:03:46;2.20;;;0.33;;
69795;SDS011;57073;45.650;9.612;2023-04-24T16:08:46;3.20;;;0.53;;
69795;SDS011;57073;45.650;9.612;2023-04-24T16:13:46;0.70;;;0.30;;
69795;SDS011;57073;45.650;9.612;2023-04-24T16:18:47;0.57;;;0.30;;
69795;SDS011;57073;45.650;9.612;2023-04-24T16:23:48;1.20;;;0.30;;
69795;SDS011;57073;45.650;9.612;2023-04-24T16:28:49;0.83;;;0.23;;
69795;SDS011;57073;45.650;9.612;2023-04-24T16:33:49;0.90;;;0.38;;
69795;SDS011;57073;45.650;9.612;2023-04-24T16:38:50;2.15;;;0.30;;
69795;SDS011;57073;45.650;9.612;2023-04-24T16:43:50;0.80;;;0.20;;
69795;SDS011;57073;45.650;9.612;2023-04-24T16:48:50;1.37;;;0.20;;
69795;SDS011;57073;45.650;9.612;2023-04-24T16:53:51;1.53;;;0.40;;
69795;SDS011;57073;45.650;9.612;2023-04-24T16:58:51;1.80;;;0.50;;
69795;SDS011;57073;45.650;9.612;2023-04-24T17:03:51;2.30;;;0.30;;
69795;SDS011;57073;45.650;9.612;2023-04-24T17:08:52;0.40;;;0.20;;
69795;SDS011;57073;45.650;9.612;2023-04-24T17:13:52;0.70;;;0.30;;
69795;SDS011;57073;45.650;9.612;2023-04-24T17:18:53;1.43;;;0.23;;
69795;SDS011;57073;45.650;9.612;2023-04-24T17:23:53;0.73;;;0.20;;
69795;SDS011;57073;45.650;9.612;2023-04-24T17:28:53;1.47;;;0.30;;
69795;SDS011;57073;45.650;9.612;2023-04-24T17:33:54;1.40;;;0.20;;
69795;SDS011;57073;45.650;9.612;2023-04-24T17:38:54;0.93;;;0.30;;
69795;SDS011;57073;45.650;9.612;2023-04-24T17:43:55;1.57;;;0.40;;
69795;SDS011;57073;45.650;9.612;2023-04-24T17:48:55;1.20;;;0.43;;
69795;SDS011;57073;45.650;9.612;2023-04-24T17:53:55;1.57;;;0.50;;
69795;SDS011;57073;45.650;9.612;2023-04-24T17:58:56;1.77;;;0.57;;
69795;SDS011;57073;45.650;9.612;2023-04-24T18:03:57;4.00;;;0.80;;
69795;SDS011;57073;45.650;9.612;2023-04-24T18:08:57;2.90;;;0.80;;
69795;SDS011;57073;45.650;9.612;2023-04-24T18:13:57;1.50;;;0.70;;
69795;SDS011;57073;45.650;9.612;2023-04-24T18:18:58;1.53;;;0.63;;
69795;SDS011;57073;45.650;9.612;2023-04-24T18:23:58;4.03;;;1.23;;
69795;SDS011;57073;45.650;9.612;2023-04-24T18:28:59;3.15;;;1.00;;
69795;SDS011;57073;45.650;9.612;2023-04-24T18:33:59;3.63;;;0.70;;
69795;SDS011;57073;45.650;9.612;2023-04-24T18:39:00;2.97;;;0.97;;
69795;SDS011;57073;45.650;9.612;2023-04-24T18:49:10;3.07;;;1.27;;
69795;SDS011;57073;45.650;9.612;2023-04-24T18:54:10;2.50;;;0.97;;
69795;SDS011;57073;45.650;9.612;2023-04-24T18:59:11;1.43;;;0.83;;
69795;SDS011;57073;45.650;9.612;2023-04-24T19:04:11;1.48;;;0.70;;
69795;SDS011;57073;45.650;9.612;2023-04-24T19:09:12;2.90;;;0.90;;
69795;SDS011;57073;45.650;9.612;2023-04-24T19:14:13;4.30;;;1.00;;
69795;SDS011;57073;45.650;9.612;2023-04-24T19:19:15;2.97;;;1.33;;
69795;SDS011;57073;45.650;9.612;2023-04-24T19:24:15;2.27;;;1.20;;
69795;SDS011;57073;45.650;9.612;2023-04-24T19:29:17;4.40;;;1.50;;
69795;SDS011;57073;45.650;9.612;2023-04-24T19:34:18;4.03;;;1.43;;
69795;SDS011;57073;45.650;9.612;2023-04-24T19:39:18;3.30;;;1.20;;
69795;SDS011;57073;45.650;9.612;2023-04-24T19:44:19;4.70;;;1.90;;
69795;SDS011;57073;45.650;9.612;2023-04-24T19:49:19;2.70;;;1.10;;
69795;SDS011;57073;45.650;9.612;2023-04-24T19:54:19;3.73;;;1.30;;
69795;SDS011;57073;45.650;9.612;2023-04-24T19:59:20;3.00;;;1.77;;
69795;SDS011;57073;45.650;9.612;2023-04-24T20:04:20;3.60;;;1.57;;
69795;SDS011;57073;45.650;9.612;2023-04-24T20:09:22;4.03;;;1.90;;
69795;SDS011;57073;45.650;9.612;2023-04-24T20:14:22;3.33;;;1.47;;
69795;SDS011;57073;45.650;9.612;2023-04-24T20:19:22;4.57;;;1.33;;
69795;SDS011;57073;45.650;9.612;2023-04-24T20:24:23;1.87;;;0.80;;
69795;SDS011;57073;45.650;9.612;2023-04-24T20:29:23;1.70;;;1.10;;
69795;SDS011;57073;45.650;9.612;2023-04-24T20:34:25;2.95;;;1.00;;
69795;SDS011;57073;45.650;9.612;2023-04-24T20:39:25;3.37;;;2.07;;
69795;SDS011;57073;45.650;9.612;2023-04-24T20:44:26;4.50;;;2.53;;
69795;SDS011;57073;45.650;9.612;2023-04-24T20:49:26;5.67;;;3.23;;
69795;SDS011;57073;45.650;9.612;2023-04-24T20:54:27;5.07;;;3.53;;
69795;SDS011;57073;45.650;9.612;2023-04-24T20:59:27;6.47;;;3.80;;
69795;SDS011;57073;45.650;9.612;2023-04-24T21:04:28;5.60;;;3.80;;
69795;SDS011;57073;45.650;9.612;2023-04-24T21:09:28;7.27;;;4.37;;
69795;SDS011;57073;45.650;9.612;2023-04-24T21:14:28;6.50;;;3.80;;
69795;SDS011;57073;45.650;9.612;2023-04-24T21:19:29;7.77;;;4.10;;
69795;SDS011;57073;45.650;9.612;2023-04-24T21:24:29;10.70;;;5.47;;
69795;SDS011;57073;45.650;9.612;2023-04-24T21:29:30;7.85;;;3.80;;
69795;SDS011;57073;45.650;9.612;2023-04-24T21:34:31;7.50;;;4.60;;
69795;SDS011;57073;45.650;9.612;2023-04-24T21:39:31;5.33;;;3.50;;
69795;SDS011;57073;45.650;9.612;2023-04-24T21:44:32;6.27;;;3.43;;
69795;SDS011;57073;45.650;9.612;2023-04-24T21:49:32;6.33;;;3.57;;
69795;SDS011;57073;45.650;9.612;2023-04-24T21:54:32;6.47;;;4.07;;
69795;SDS011;57073;45.650;9.612;2023-04-24T21:59:33;6.07;;;3.83;;
69795;SDS011;57073;45.650;9.612;2023-04-24T22:04:34;6.10;;;3.42;;
69795;SDS011;57073;45.650;9.612;2023-04-24T22:09:34;6.30;;;3.57;;
69795;SDS011;57073;45.650;9.612;2023-04-24T22:14:35;5.53;;;3.37;;
69795;SDS011;57073;45.650;9.612;2023-04-24T22:19:35;5.93;;;3.87;;
69795;SDS011;57073;45.650;9.612;2023-04-24T22:24:35;7.17;;;3.23;;
69795;SDS011;57073;45.650;9.612;2023-04-24T22:29:36;4.43;;;2.57;;
69795;SDS011;57073;45.650;9.612;2023-04-24T22:34:36;4.57;;;2.50;;
69795;SDS011;57073;45.650;9.612;2023-04-24T22:39:36;3.20;;;1.90;;
69795;SDS011;57073;45.650;9.612;2023-04-24T22:44:37;4.53;;;1.93;;
69795;SDS011;57073;45.650;9.612;2023-04-24T22:49:37;3.63;;;1.80;;
69795;SDS011;57073;45.650;9.612;2023-04-24T22:54:38;3.53;;;1.92;;
69795;SDS011;57073;45.650;9.612;2023-04-24T22:59:39;3.60;;;1.90;;
69795;SDS011;57073;45.650;9.612;2023-04-24T23:04:39;3.27;;;2.00;;
69795;SDS011;57073;45.650;9.612;2023-04-24T23:09:40;3.47;;;1.63;;
69795;SDS011;57073;45.650;9.612;2023-04-24T23:14:41;4.05;;;1.95;;
69795;SDS011;57073;45.650;9.612;2023-04-24T23:19:41;3.67;;;2.07;;
69795;SDS011;57073;45.650;9.612;2023-04-24T23:24:41;2.90;;;1.97;;
69795;SDS011;57073;45.650;9.612;2023-04-24T23:29:42;3.20;;;2.07;;
69795;SDS011;57073;45.650;9.612;2023-04-24T23:34:42;4.57;;;2.10;;
69795;SDS011;57073;45.650;9.612;2023-04-24T23:39:42;4.03;;;2.20;;
69795;SDS011;57073;45.650;9.612;2023-04-24T23:44:43;3.03;;;1.80;;
69795;SDS011;57073;45.650;9.612;2023-04-24T23:49:43;3.87;;;2.33;;
69795;SDS011;57073;45.650;9.612;2023-04-24T23:54:44;3.73;;;1.93;;
69795;SDS011;57073;45.650;9.612;2023-04-24T23:59:44;2.80;;;1.83;;
